createdAt,value
2023-05-14T00:00:00.038Z,7.63
2023-05-14T00:02:27.215Z,7.23
2023-05-14T00:04:54.341Z,7.50
2023-05-14T00:07:21.287Z,7.00
2023-05-14T00:09:48.237Z,7.67
2023-05-14T00:12:15.409Z,7.80
2023-05-14T00:14:42.383Z,6.87
2023-05-14T00:17:09.957Z,7.23
2023-05-14T00:19:36.913Z,7.10
2023-05-14T00:22:04.098Z,6.47
2023-05-14T00:24:31.033Z,6.93
2023-05-14T00:26:58.045Z,8.23
2023-05-14T00:29:25.006Z,7.80
2023-05-14T00:31:52.075Z,7.43
2023-05-14T00:34:19.155Z,7.60
2023-05-14T00:36:46.133Z,6.60
2023-05-14T00:39:14.188Z,6.83
2023-05-14T00:41:41.292Z,6.80
2023-05-14T00:44:08.327Z,7.23
2023-05-14T00:46:35.630Z,6.20
2023-05-14T00:49:03.389Z,7.03
2023-05-14T00:51:30.677Z,6.13
2023-05-14T00:53:57.929Z,6.73
2023-05-14T00:56:25.657Z,7.17
2023-05-14T00:58:52.640Z,6.53
2023-05-14T01:01:19.688Z,6.63
2023-05-14T01:03:47.014Z,6.07
2023-05-14T01:06:21.571Z,6.13
2023-05-14T01:09:08.725Z,6.17
2023-05-14T01:12:06.324Z,6.20
2023-05-14T01:15:02.423Z,6.00
2023-05-14T01:17:33.514Z,5.87
2023-05-14T01:20:00.899Z,6.33
2023-05-14T01:22:27.922Z,5.87
2023-05-14T01:24:54.987Z,6.10
2023-05-14T01:28:05.537Z,6.87
2023-05-14T01:30:40.260Z,5.70
2023-05-14T01:33:13.980Z,6.10
2023-05-14T01:35:43.333Z,6.73
2023-05-14T01:38:14.908Z,6.40
2023-05-14T01:40:43.169Z,6.33
2023-05-14T01:43:11.608Z,6.23
2023-05-14T01:45:38.721Z,6.23
2023-05-14T01:48:06.441Z,5.90
2023-05-14T01:50:33.617Z,6.40
2023-05-14T01:53:00.764Z,7.77
2023-05-14T01:55:28.066Z,6.30
2023-05-14T01:57:55.184Z,6.53
2023-05-14T02:00:26.012Z,6.30
2023-05-14T02:02:53.475Z,5.73
2023-05-14T02:05:21.077Z,6.90
2023-05-14T02:07:48.083Z,6.43
2023-05-14T02:10:16.213Z,6.40
2023-05-14T02:12:43.922Z,6.53
2023-05-14T02:15:12.095Z,6.50
2023-05-14T02:17:39.356Z,5.87
2023-05-14T02:20:07.744Z,6.30
2023-05-14T02:22:42.218Z,6.73
2023-05-14T02:25:09.935Z,6.60
2023-05-14T02:27:37.017Z,6.27
2023-05-14T02:30:06.159Z,6.17
2023-05-14T02:32:33.525Z,5.73
2023-05-14T02:35:00.692Z,6.50
2023-05-14T02:37:27.711Z,6.00
2023-05-14T02:39:54.691Z,5.90
2023-05-14T02:42:23.111Z,6.13
2023-05-14T02:44:52.231Z,5.83
2023-05-14T02:47:19.562Z,6.17
2023-05-14T02:49:46.608Z,6.07
2023-05-14T02:52:13.788Z,7.37
2023-05-14T02:54:40.846Z,7.07
2023-05-14T02:57:07.844Z,7.67
2023-05-14T02:59:35.266Z,7.73
2023-05-14T03:02:02.836Z,8.33
2023-05-14T03:04:30.456Z,9.30
2023-05-14T03:06:57.502Z,8.33
2023-05-14T03:09:24.438Z,9.10
2023-05-14T03:11:51.444Z,9.30
2023-05-14T03:14:18.433Z,9.53
2023-05-14T03:16:46.030Z,8.13
2023-05-14T03:19:13.254Z,9.33
2023-05-14T03:21:40.489Z,9.10
2023-05-14T03:24:07.483Z,9.37
2023-05-14T03:26:34.517Z,9.20
2023-05-14T03:29:02.358Z,8.63
2023-05-14T03:31:29.583Z,7.50
2023-05-14T03:33:56.896Z,9.43
2023-05-14T03:36:23.870Z,8.37
2023-05-14T03:38:50.827Z,8.53
2023-05-14T03:41:19.127Z,8.70
2023-05-14T03:43:46.112Z,8.00
2023-05-14T03:46:13.323Z,8.90
2023-05-14T03:48:40.961Z,8.50
2023-05-14T03:51:08.062Z,8.87
2023-05-14T03:53:36.551Z,8.80
2023-05-14T03:56:03.721Z,8.17
2023-05-14T03:58:30.946Z,9.67
2023-05-14T04:00:58.069Z,8.70
2023-05-14T04:03:25.770Z,7.97
2023-05-14T04:05:52.824Z,8.43
2023-05-14T04:08:20.050Z,8.37
2023-05-14T04:10:47.096Z,9.50
2023-05-14T04:13:14.141Z,8.33
2023-05-14T04:15:41.645Z,8.40
2023-05-14T04:18:08.698Z,8.63
2023-05-14T04:20:35.802Z,7.83
2023-05-14T04:23:02.849Z,8.40
2023-05-14T04:25:30.458Z,7.63
2023-05-14T04:27:58.546Z,7.80
2023-05-14T04:30:26.372Z,8.10
2023-05-14T04:32:53.451Z,8.00
2023-05-14T04:35:22.633Z,7.67
2023-05-14T04:37:51.115Z,7.83
2023-05-14T04:40:18.082Z,8.53
2023-05-14T04:42:45.171Z,8.50
2023-05-14T04:45:13.491Z,8.20
2023-05-14T04:47:41.639Z,8.13
2023-05-14T04:50:09.732Z,7.93
2023-05-14T04:52:36.944Z,8.50
2023-05-14T04:55:04.251Z,7.67
2023-05-14T04:57:31.247Z,8.53
2023-05-14T04:59:58.214Z,7.80
2023-05-14T05:02:25.524Z,7.90
2023-05-14T05:04:52.524Z,7.37
2023-05-14T05:07:19.916Z,7.27
2023-05-14T05:09:46.903Z,8.13
2023-05-14T05:12:13.875Z,8.00
2023-05-14T05:14:40.852Z,7.90
2023-05-14T05:17:08.235Z,7.87
2023-05-14T05:19:43.040Z,7.70
2023-05-14T05:22:11.152Z,7.37
2023-05-14T05:24:38.120Z,7.53
2023-05-14T05:27:05.995Z,7.63
2023-05-14T05:29:33.377Z,7.50
2023-05-14T05:32:00.536Z,8.37
2023-05-14T05:34:27.736Z,7.90
2023-05-14T05:36:54.659Z,7.70
2023-05-14T05:39:21.651Z,8.30
2023-05-14T05:41:48.627Z,9.50
2023-05-14T05:44:15.665Z,8.13
2023-05-14T05:46:42.845Z,8.70
2023-05-14T05:49:09.799Z,9.43
2023-05-14T05:51:36.742Z,8.90
2023-05-14T05:54:03.916Z,8.87
2023-05-14T05:56:30.858Z,8.53
2023-05-14T05:58:57.775Z,8.17
2023-05-14T06:01:24.776Z,8.40
2023-05-14T06:03:51.713Z,8.03
2023-05-14T06:06:18.639Z,8.13
2023-05-14T06:08:45.612Z,8.17
2023-05-14T06:11:12.693Z,10.87
2023-05-14T06:13:39.642Z,8.03
2023-05-14T06:16:06.775Z,8.33
2023-05-14T06:18:33.743Z,9.00
2023-05-14T06:21:00.677Z,8.27
2023-05-14T06:23:27.632Z,8.70
2023-05-14T06:25:54.632Z,8.17
2023-05-14T06:28:21.562Z,8.23
2023-05-14T06:30:50.564Z,9.70
2023-05-14T06:33:19.391Z,9.38
2023-05-14T06:35:47.533Z,9.73
2023-05-14T06:38:14.531Z,9.98
2023-05-14T06:40:41.537Z,9.52
2023-05-14T06:43:08.506Z,10.35
2023-05-14T06:45:35.829Z,10.15
2023-05-14T06:48:02.978Z,10.07
2023-05-14T06:50:29.980Z,9.68
2023-05-14T06:52:56.921Z,9.50
2023-05-14T06:55:23.908Z,10.52
2023-05-14T06:57:50.913Z,9.98
2023-05-14T07:00:18.510Z,10.82
2023-05-14T07:02:45.539Z,12.20
2023-05-14T07:05:12.920Z,13.20
2023-05-14T07:07:40.284Z,12.30
2023-05-14T07:10:08.161Z,13.88
2023-05-14T07:12:35.361Z,12.48
2023-05-14T07:15:02.349Z,13.70
2023-05-14T07:17:29.626Z,14.80
2023-05-14T07:19:56.653Z,16.52
2023-05-14T07:22:23.653Z,17.67
2023-05-14T07:24:50.595Z,18.45
2023-05-14T07:27:17.611Z,18.70
2023-05-14T07:29:44.819Z,18.65
2023-05-14T07:32:13.904Z,20.00
2023-05-14T07:34:42.502Z,20.20
2023-05-14T07:37:09.631Z,22.50
2023-05-14T07:39:36.586Z,24.02
2023-05-14T07:42:04.449Z,24.77
2023-05-14T07:44:31.408Z,24.98
2023-05-14T07:46:58.450Z,24.67
2023-05-14T07:49:25.427Z,25.80
2023-05-14T07:51:52.338Z,25.50
2023-05-14T07:54:19.303Z,24.83
2023-05-14T07:56:46.249Z,24.90
2023-05-14T07:59:13.223Z,24.25
2023-05-14T08:01:40.586Z,23.95
2023-05-14T08:04:08.097Z,25.55
2023-05-14T08:06:35.718Z,24.15
2023-05-14T08:09:05.261Z,25.10
2023-05-14T08:11:32.214Z,26.25
2023-05-14T08:13:59.331Z,24.48
2023-05-14T08:16:26.687Z,24.75
2023-05-14T08:18:53.736Z,25.15
2023-05-14T08:21:20.851Z,26.23
2023-05-14T08:23:47.815Z,25.13
2023-05-14T08:26:14.839Z,26.90
2023-05-14T08:28:41.839Z,26.23
2023-05-14T08:31:08.833Z,25.63
2023-05-14T08:33:35.811Z,26.23
2023-05-14T08:36:02.731Z,24.83
2023-05-14T08:38:29.861Z,25.63
2023-05-14T08:40:58.989Z,25.63
2023-05-14T08:43:45.772Z,25.00
2023-05-14T08:46:15.464Z,26.40
2023-05-14T08:48:43.498Z,26.30
2023-05-14T08:51:10.553Z,25.67
2023-05-14T08:53:38.323Z,27.15
2023-05-14T08:56:07.852Z,27.85
2023-05-14T08:58:34.892Z,27.15
2023-05-14T09:01:01.889Z,26.63
2023-05-14T09:03:30.796Z,26.98
2023-05-14T09:06:00.083Z,26.13
2023-05-14T09:08:27.354Z,26.30
2023-05-14T09:10:54.292Z,29.45
2023-05-14T09:13:21.301Z,27.30
2023-05-14T09:15:49.788Z,28.17
2023-05-14T09:18:17.836Z,29.50
2023-05-14T09:20:46.626Z,29.30
2023-05-14T09:23:13.560Z,28.23
2023-05-14T09:25:40.865Z,28.23
2023-05-14T09:28:09.576Z,29.35
2023-05-14T09:30:37.108Z,28.60
2023-05-14T09:33:04.272Z,28.15
2023-05-14T09:35:32.343Z,29.35
2023-05-14T09:37:59.309Z,29.60
2023-05-14T09:40:26.608Z,29.38
2023-05-14T09:42:54.228Z,29.48
2023-05-14T09:45:21.337Z,28.83
2023-05-14T09:47:48.544Z,28.33
2023-05-14T09:50:15.694Z,29.15
2023-05-14T09:52:42.715Z,28.75
2023-05-14T09:55:09.981Z,30.27
2023-05-14T09:57:37.148Z,28.52
2023-05-14T10:00:04.845Z,27.73
2023-05-14T10:02:40.820Z,28.85
2023-05-14T10:05:08.655Z,28.73
2023-05-14T10:07:49.712Z,28.27
2023-05-14T10:10:20.585Z,28.70
2023-05-14T10:12:58.650Z,29.58
2023-05-14T10:15:38.071Z,29.27
2023-05-14T10:18:15.832Z,30.20
2023-05-14T10:20:44.596Z,30.15
2023-05-14T10:23:11.992Z,30.40
2023-05-14T10:25:41.639Z,31.80
2023-05-14T10:28:08.945Z,30.13
2023-05-14T10:30:35.920Z,31.17
2023-05-14T10:33:14.250Z,28.45
2023-05-14T10:36:07.525Z,28.15
2023-05-14T10:38:37.232Z,29.80
2023-05-14T10:41:17.716Z,29.63
2023-05-14T10:43:44.908Z,28.92
2023-05-14T10:46:14.253Z,29.33
2023-05-14T10:48:45.738Z,29.13
2023-05-14T10:51:13.041Z,29.35
2023-05-14T10:53:44.088Z,25.38
2023-05-14T10:56:13.998Z,26.60
2023-05-14T10:58:44.690Z,28.65
2023-05-14T11:01:13.857Z,26.20
2023-05-14T11:03:46.856Z,29.45
2023-05-14T11:06:16.176Z,26.98
2023-05-14T11:08:44.681Z,27.77
2023-05-14T11:11:12.821Z,28.30
2023-05-14T11:13:41.191Z,28.55
2023-05-14T11:16:21.920Z,24.27
2023-05-14T11:19:03.550Z,23.90
2023-05-14T11:21:32.499Z,27.60
2023-05-14T11:24:03.696Z,26.23
2023-05-14T11:26:31.996Z,27.63
2023-05-14T11:28:59.160Z,22.35
2023-05-14T11:31:26.209Z,18.48
2023-05-14T11:33:53.628Z,21.42
2023-05-14T11:36:20.797Z,19.67
2023-05-14T11:38:50.540Z,17.63
2023-05-14T11:41:17.809Z,22.50
2023-05-14T11:43:44.822Z,20.50
2023-05-14T11:46:22.313Z,19.95
2023-05-14T11:48:49.518Z,21.30
2023-05-14T11:51:16.725Z,19.77
2023-05-14T11:53:45.470Z,19.38
2023-05-14T11:56:12.570Z,16.60
2023-05-14T11:58:39.783Z,15.88
2023-05-14T12:01:06.855Z,16.08
2023-05-14T12:03:35.134Z,16.98
2023-05-14T12:06:07.339Z,18.77
2023-05-14T12:08:34.274Z,19.42
2023-05-14T12:11:01.941Z,17.52
2023-05-14T12:13:31.217Z,19.15
2023-05-14T12:16:01.957Z,16.83
2023-05-14T12:18:31.851Z,18.27
2023-05-14T12:21:08.415Z,14.55
2023-05-14T12:23:35.570Z,13.38
2023-05-14T12:26:09.431Z,11.82
2023-05-14T12:28:43.241Z,12.80
2023-05-14T12:31:10.670Z,12.60
2023-05-14T12:33:37.626Z,12.30
2023-05-14T12:36:20.422Z,13.70
2023-05-14T12:38:49.134Z,13.85
2023-05-14T12:41:17.668Z,14.57
2023-05-14T12:43:45.144Z,14.15
2023-05-14T12:46:12.231Z,13.90
2023-05-14T12:48:39.172Z,14.98
2023-05-14T12:51:06.577Z,15.73
2023-05-14T12:53:35.221Z,15.68
2023-05-14T12:56:02.421Z,17.35
2023-05-14T12:58:29.583Z,9.27
2023-05-14T13:00:56.641Z,9.23
2023-05-14T13:03:23.902Z,9.32
2023-05-14T13:05:54.937Z,8.75
2023-05-14T13:08:24.923Z,9.25
2023-05-14T13:10:56.294Z,10.85
2023-05-14T13:13:23.497Z,11.32
2023-05-14T13:15:50.786Z,11.40
2023-05-14T13:18:18.132Z,10.13
2023-05-14T13:20:47.703Z,9.75
2023-05-14T13:23:15.565Z,11.48
2023-05-14T13:25:42.605Z,12.55
2023-05-14T13:28:09.704Z,12.02
2023-05-14T13:30:36.742Z,11.77
2023-05-14T13:33:04.273Z,12.68
2023-05-14T13:35:31.415Z,11.55
2023-05-14T13:37:58.402Z,12.35
2023-05-14T13:40:25.621Z,12.77
2023-05-14T13:42:52.594Z,12.30
2023-05-14T13:45:19.979Z,11.73
2023-05-14T13:47:48.243Z,11.45
2023-05-14T13:50:16.542Z,13.75
2023-05-14T13:52:43.809Z,13.95
2023-05-14T13:55:10.783Z,13.07
2023-05-14T13:57:39.688Z,16.70
2023-05-14T14:00:07.929Z,16.67
2023-05-14T14:02:35.229Z,15.82
2023-05-14T14:05:02.523Z,15.57
2023-05-14T14:07:29.526Z,15.30
2023-05-14T14:09:56.576Z,13.77
2023-05-14T14:12:23.773Z,12.77
2023-05-14T14:14:51.001Z,12.73
2023-05-14T14:17:17.986Z,12.15
2023-05-14T14:19:44.970Z,12.07
2023-05-14T14:22:13.937Z,12.00
2023-05-14T14:24:41.027Z,16.60
2023-05-14T14:27:08.470Z,13.50
2023-05-14T14:29:36.659Z,13.10
2023-05-14T14:32:04.703Z,13.23
2023-05-14T14:34:31.744Z,12.68
2023-05-14T14:36:58.765Z,12.75
2023-05-14T14:39:26.481Z,10.00
2023-05-14T14:41:53.507Z,10.52
2023-05-14T14:44:20.542Z,12.13
2023-05-14T14:46:47.647Z,10.75
2023-05-14T14:49:14.632Z,11.88
2023-05-14T14:51:41.625Z,11.98
2023-05-14T14:54:08.650Z,12.45
2023-05-14T14:56:35.616Z,13.15
2023-05-14T14:59:03.373Z,12.35
2023-05-14T15:01:30.417Z,12.27
2023-05-14T15:03:57.421Z,12.82
2023-05-14T15:06:24.435Z,12.82
2023-05-14T15:08:51.442Z,12.43
2023-05-14T15:11:18.620Z,12.38
2023-05-14T15:13:45.645Z,11.93
2023-05-14T15:16:13.561Z,11.75
2023-05-14T15:18:40.608Z,11.68
2023-05-14T15:21:07.651Z,12.13
2023-05-14T15:23:34.628Z,11.35
2023-05-14T15:26:01.531Z,11.10
2023-05-14T15:28:28.522Z,10.52
2023-05-14T15:30:55.559Z,11.65
2023-05-14T15:33:22.545Z,11.52
2023-05-14T15:35:49.523Z,11.43
2023-05-14T15:38:16.682Z,12.05
2023-05-14T15:40:43.729Z,12.05
2023-05-14T15:43:10.918Z,11.68
2023-05-14T15:45:37.935Z,11.85
2023-05-14T15:48:05.395Z,11.68
2023-05-14T15:50:32.490Z,10.65
2023-05-14T15:53:00.528Z,10.57
2023-05-14T15:55:27.752Z,9.82
2023-05-14T15:57:55.123Z,9.82
2023-05-14T16:00:22.796Z,9.98
2023-05-14T16:02:51.333Z,9.85
2023-05-14T16:05:19.014Z,9.18
2023-05-14T16:07:46.429Z,9.50
2023-05-14T16:10:13.495Z,10.45
2023-05-14T16:12:40.465Z,9.52
2023-05-14T16:15:08.587Z,9.13
2023-05-14T16:17:35.752Z,9.73
2023-05-14T16:20:04.767Z,9.30
2023-05-14T16:22:36.014Z,9.00
2023-05-14T16:25:04.710Z,9.35
2023-05-14T16:27:32.073Z,9.55
2023-05-14T16:29:59.124Z,9.10
2023-05-14T16:32:26.204Z,8.38
2023-05-14T16:34:53.303Z,8.27
2023-05-14T16:37:20.592Z,7.93
2023-05-14T16:39:48.454Z,6.80
2023-05-14T16:42:15.414Z,7.38
2023-05-14T16:44:42.426Z,6.80
2023-05-14T16:47:09.408Z,6.68
2023-05-14T16:49:36.453Z,6.05
2023-05-14T16:52:03.821Z,6.25
2023-05-14T16:54:30.870Z,6.03
2023-05-14T16:56:57.855Z,5.45
2023-05-14T16:59:25.239Z,5.75
2023-05-14T17:01:52.344Z,5.75
2023-05-14T17:04:19.466Z,4.82
2023-05-14T17:06:46.671Z,4.65
2023-05-14T17:09:13.672Z,4.60
2023-05-14T17:11:40.914Z,4.60
2023-05-14T17:14:08.090Z,4.28
2023-05-14T17:16:35.101Z,4.80
2023-05-14T17:19:02.247Z,4.28
2023-05-14T17:21:29.278Z,4.28
2023-05-14T17:23:56.393Z,4.63
2023-05-14T17:26:23.499Z,4.05
2023-05-14T17:28:50.534Z,4.45
2023-05-14T17:31:17.643Z,3.28
2023-05-14T17:33:44.599Z,3.72
2023-05-14T17:36:11.608Z,3.63
2023-05-14T17:38:39.118Z,3.28
2023-05-14T17:41:06.307Z,3.50
2023-05-14T17:43:33.459Z,3.67
2023-05-14T17:46:00.437Z,3.38
2023-05-14T17:48:27.479Z,3.53
2023-05-14T17:50:54.495Z,3.97
2023-05-14T17:53:21.773Z,3.60
2023-05-14T17:55:50.085Z,3.50
2023-05-14T17:58:17.306Z,3.20
2023-05-14T18:00:44.439Z,3.85
2023-05-14T18:03:11.871Z,4.90
2023-05-14T18:05:39.071Z,5.57
2023-05-14T18:08:06.137Z,4.55
2023-05-14T18:10:33.131Z,4.05
2023-05-14T18:13:00.273Z,3.63
2023-05-14T18:15:27.482Z,3.42
2023-05-14T18:17:54.768Z,4.07
2023-05-14T18:20:21.907Z,3.25
2023-05-14T18:22:50.561Z,3.28
2023-05-14T18:25:17.931Z,3.40
2023-05-14T18:27:45.627Z,3.33
2023-05-14T18:30:14.990Z,3.38
2023-05-14T18:32:44.548Z,4.00
2023-05-14T18:35:13.611Z,3.80
2023-05-14T18:37:40.984Z,3.25
2023-05-14T18:40:09.155Z,3.25
2023-05-14T18:42:36.236Z,3.30
2023-05-14T18:45:04.294Z,3.58
2023-05-14T18:47:33.536Z,4.40
2023-05-14T18:50:01.898Z,3.90
2023-05-14T18:52:29.854Z,3.28
2023-05-14T18:54:56.885Z,3.70
2023-05-14T18:57:34.907Z,3.80
2023-05-14T19:00:02.112Z,4.80
2023-05-14T19:02:29.767Z,4.07
2023-05-14T19:04:57.096Z,3.88
2023-05-14T19:07:24.361Z,3.77
2023-05-14T19:09:51.867Z,3.67
2023-05-14T19:12:18.818Z,3.50
2023-05-14T19:14:46.014Z,3.78
2023-05-14T19:17:13.185Z,3.40
2023-05-14T19:19:40.141Z,3.87
2023-05-14T19:22:07.254Z,4.50
2023-05-14T19:24:34.262Z,4.20
2023-05-14T19:27:01.404Z,3.70
2023-05-14T19:29:28.524Z,4.07
2023-05-14T19:31:55.615Z,4.20
2023-05-14T19:34:22.642Z,3.87
2023-05-14T19:36:50.100Z,4.30
2023-05-14T19:39:17.415Z,3.93
2023-05-14T19:41:44.386Z,4.90
2023-05-14T19:44:11.346Z,4.50
2023-05-14T19:46:38.493Z,5.10
2023-05-14T19:49:05.974Z,4.97
2023-05-14T19:51:32.916Z,4.47
2023-05-14T19:54:00.088Z,5.23
2023-05-14T19:56:27.975Z,4.37
2023-05-14T19:58:55.130Z,4.97
2023-05-14T20:01:22.402Z,4.90
2023-05-14T20:03:49.603Z,4.47
2023-05-14T20:06:17.472Z,4.70
2023-05-14T20:08:47.694Z,5.10
2023-05-14T20:11:15.632Z,4.37
2023-05-14T20:13:42.663Z,4.80
2023-05-14T20:16:09.660Z,5.10
2023-05-14T20:18:36.749Z,5.27
2023-05-14T20:21:04.182Z,5.90
2023-05-14T20:23:32.332Z,5.57
2023-05-14T20:26:01.741Z,5.53
2023-05-14T20:28:29.246Z,5.50
2023-05-14T20:31:08.038Z,5.50
2023-05-14T20:33:35.298Z,5.47
2023-05-14T20:36:04.401Z,5.63
2023-05-14T20:38:32.769Z,5.67
2023-05-14T20:40:59.856Z,5.53
2023-05-14T20:43:27.740Z,5.30
2023-05-14T20:45:57.136Z,5.97
2023-05-14T20:48:24.216Z,5.60
2023-05-14T20:50:51.171Z,5.53
2023-05-14T20:53:18.171Z,5.70
2023-05-14T20:55:45.235Z,6.17
2023-05-14T20:58:12.186Z,5.83
2023-05-14T21:00:39.261Z,5.27
2023-05-14T21:03:06.401Z,5.70
2023-05-14T21:05:33.659Z,5.67
2023-05-14T21:08:00.617Z,6.40
2023-05-14T21:10:27.673Z,6.57
2023-05-14T21:12:54.755Z,6.67
2023-05-14T21:15:21.737Z,6.40
2023-05-14T21:17:48.771Z,6.53
2023-05-14T21:20:15.831Z,6.50
2023-05-14T21:22:42.778Z,6.40
2023-05-14T21:25:10.194Z,6.37
2023-05-14T21:27:37.380Z,6.73
2023-05-14T21:30:05.058Z,7.80
2023-05-14T21:32:32.718Z,7.43
2023-05-14T21:34:59.690Z,7.70
2023-05-14T21:37:26.749Z,7.33
2023-05-14T21:39:53.682Z,7.27
2023-05-14T21:42:21.117Z,8.30
2023-05-14T21:44:48.093Z,7.67
2023-05-14T21:47:16.279Z,7.87
2023-05-14T21:49:43.541Z,9.10
2023-05-14T21:52:10.736Z,12.50
2023-05-14T21:54:37.656Z,10.40
2023-05-14T21:57:04.793Z,9.93
2023-05-14T21:59:31.736Z,9.60
2023-05-14T22:04:28.544Z,9.67
2023-05-14T22:06:55.958Z,8.83
2023-05-14T22:09:22.885Z,9.83
2023-05-14T22:11:49.865Z,10.47
2023-05-14T22:14:17.210Z,9.07
2023-05-14T22:16:44.402Z,9.80
2023-05-14T22:19:11.813Z,10.03
2023-05-14T22:21:38.995Z,10.97
2023-05-14T22:24:06.350Z,10.23
2023-05-14T22:26:33.411Z,12.23
2023-05-14T22:29:00.446Z,11.33
2023-05-14T22:31:27.459Z,11.90
2023-05-14T22:33:54.724Z,13.20
2023-05-14T22:36:21.670Z,12.20
2023-05-14T22:38:48.621Z,12.33
2023-05-14T22:41:17.458Z,13.07
2023-05-14T22:43:44.481Z,14.00
2023-05-14T22:46:11.508Z,14.87
2023-05-14T22:48:38.616Z,15.17
2023-05-14T22:51:05.661Z,16.37
2023-05-14T22:53:32.664Z,14.80
2023-05-14T22:55:59.684Z,14.37
2023-05-14T22:58:26.586Z,13.53
2023-05-14T23:00:53.582Z,14.07
2023-05-14T23:03:20.649Z,13.17
2023-05-14T23:05:47.615Z,13.07
2023-05-14T23:08:14.608Z,13.57
2023-05-14T23:10:41.782Z,13.63
2023-05-14T23:13:08.700Z,15.30
2023-05-14T23:15:35.780Z,15.23
2023-05-14T23:18:02.888Z,16.97
2023-05-14T23:20:29.991Z,17.07
2023-05-14T23:22:56.905Z,18.00
2023-05-14T23:25:24.335Z,19.13
2023-05-14T23:27:51.660Z,19.03
2023-05-14T23:30:18.662Z,18.73
2023-05-14T23:32:45.658Z,19.93
2023-05-14T23:35:12.666Z,18.87
2023-05-14T23:37:47.077Z,19.93
2023-05-14T23:40:15.657Z,22.03
2023-05-14T23:42:43.442Z,20.87
2023-05-14T23:45:12.169Z,21.73
2023-05-14T23:47:40.479Z,21.57
2023-05-14T23:50:08.034Z,23.50
2023-05-14T23:52:35.034Z,24.17
2023-05-14T23:55:04.182Z,24.40
2023-05-14T23:57:31.235Z,25.03
2023-05-14T23:59:58.385Z,24.60
